| time (UTC) | temp F | wind direction | speed MPH | gust MPH | rain 1hr in | rain 24hr in | rain mn in | humidity % | barometer mb |
| 20260901081346 | 78 | 202 | 0.0 | 0.0 | 0.00 | 0.11 | 0.00 | 93 | 1015.3 |
| 20260901080346 | 78 | 202 | 0.0 | 0.0 | 0.00 | 0.11 | 0.00 | 92 | 1015.4 |
| 20260901074345 | 79 | 202 | 0.0 | 0.0 | 0.00 | 0.11 | 0.00 | 92 | 1015.4 |
| 20260901073345 | 79 | 202 | 0.0 | 0.0 | 0.00 | 0.11 | 0.00 | 92 | 1015.5 |
| 20260901072347 | 79 | 202 | 0.0 | 0.0 | 0.00 | 0.11 | 0.00 | 92 | 1015.4 |
| 20260901070445 | 79 | 202 | 0.0 | 0.0 | 0.00 | 0.11 | 0.00 | 91 | 1015.8 |
| 20260901065446 | 79 | 202 | 0.0 | 0.0 | 0.00 | 0.11 | 0.00 | 91 | 1015.8 |
| 20260901063446 | 80 | 202 | 0.0 | 0.0 | 0.00 | 0.11 | 0.00 | 90 | 1015.5 |
| 20260901062447 | 80 | 202 | 0.0 | 0.0 | 0.00 | 0.11 | 0.00 | 89 | 1015.7 |
| 20260901061544 | 80 | 202 | 0.0 | 0.0 | 0.00 | 0.11 | 0.00 | 90 | 1015.7 |
| 20260901054646 | 80 | 202 | 0.0 | 0.0 | 0.00 | 0.11 | 0.00 | 89 | 1016.0 |
| 20260901053744 | 80 | 202 | 0.0 | 0.0 | 0.00 | 0.11 | 0.00 | 89 | 1015.9 |
| 20260901052747 | 80 | 202 | 0.0 | 0.0 | 0.00 | 0.11 | 0.00 | 88 | 1016.0 |
| 20260901051845 | 81 | 202 | 0.0 | 0.0 | 0.00 | 0.11 | 0.00 | 89 | 1015.8 |
| 20260901050944 | 81 | 202 | 0.0 | 0.0 | 0.00 | 0.11 | 0.00 | 89 | 1015.7 |
| 20260901050844 | 81 | 202 | 0.0 | 0.0 | 0.00 | 0.11 | 0.00 | 89 | 1015.7 |
| 20260901043931 | 81 | 202 | 0.0 | 0.0 | 0.00 | 0.11 | 0.11 | 86 | 1015.5 |
| 20260901042933 | 81 | 202 | 0.0 | 0.0 | 0.00 | 0.11 | 0.11 | 86 | 1015.7 |
| 20260901041935 | 81 | 202 | 0.0 | 0.0 | 0.00 | 0.11 | 0.11 | 86 | 1015.8 |
| 20260901040933 | 81 | 202 | 0.0 | 0.0 | 0.00 | 0.11 | 0.11 | 84 | 1015.8 |
| 20260901040032 | 82 | 202 | 0.0 | 0.0 | 0.00 | 0.11 | 0.11 | 85 | 1015.7 |
| 20260901035032 | 82 | 202 | 0.0 | 0.0 | 0.00 | 0.11 | 0.11 | 84 | 1015.7 |
| 20260901034036 | 82 | 202 | 0.0 | 0.0 | 0.00 | 0.11 | 0.11 | 84 | 1015.7 |
| 20260901033034 | 82 | 202 | 0.0 | 0.0 | 0.00 | 0.11 | 0.11 | 84 | 1015.5 |
| 20260901032132 | 82 | 202 | 0.0 | 0.0 | 0.00 | 0.11 | 0.11 | 82 | 1015.7 |
| 20260901031132 | 83 | 202 | 0.0 | 0.0 | 0.00 | 0.11 | 0.11 | 83 | 1015.5 |
| 20260901030133 | 83 | 202 | 0.0 | 0.0 | 0.00 | 0.11 | 0.11 | 82 | 1015.4 |
| 20260901025133 | 83 | 202 | 0.0 | 0.0 | 0.00 | 0.11 | 0.11 | 82 | 1015.3 |
| 20260901024131 | 83 | 202 | 0.0 | 0.0 | 0.00 | 0.11 | 0.11 | 81 | 1015.1 |
| 20260901023134 | 83 | 202 | 0.0 | 0.0 | 0.00 | 0.11 | 0.11 | 81 | 1015.0 |
| 20260901022133 | 83 | 202 | 0.0 | 0.0 | 0.00 | 0.11 | 0.11 | 81 | 1014.9 |
| 20260901021133 | 83 | 202 | 0.0 | 0.0 | 0.00 | 0.11 | 0.11 | 81 | 1014.7 |
| 20260901020231 | 83 | 202 | 0.0 | 0.0 | 0.00 | 0.11 | 0.11 | 81 | 1014.6 |
| 20260901020130 | 83 | 202 | 0.0 | 0.0 | 0.00 | 0.11 | 0.11 | 80 | 1014.6 |
| 20260901014230 | 83 | 202 | 0.0 | 0.0 | 0.00 | 0.11 | 0.11 | 79 | 1014.5 |
| 20260901013233 | 84 | 202 | 0.0 | 0.0 | 0.00 | 0.11 | 0.11 | 77 | 1014.4 |
| 20260901012232 | 84 | 202 | 0.0 | 0.0 | 0.00 | 0.11 | 0.11 | 76 | 1014.3 |
| 20260901011233 | 85 | 202 | 0.0 | 0.0 | 0.00 | 0.11 | 0.11 | 75 | 1014.6 |
| 20260901010231 | 85 | 202 | 0.0 | 0.0 | 0.00 | 0.11 | 0.11 | 74 | 1014.4 |
| 20260901004331 | 86 | 202 | 0.0 | 0.0 | 0.00 | 0.11 | 0.11 | 72 | 1014.5 |
| 20260901003331 | 86 | 202 | 0.0 | 0.0 | 0.00 | 0.11 | 0.11 | 72 | 1014.5 |
| 20260901002332 | 87 | 202 | 0.0 | 0.0 | 0.00 | 0.11 | 0.11 | 71 | 1014.6 |
| 20260901001332 | 87 | 202 | 0.0 | 0.0 | 0.00 | 0.11 | 0.11 | 70 | 1014.6 |
| 20260901000431 | 88 | 202 | 0.0 | 2.0 | 0.00 | 0.11 | 0.11 | 68 | 1014.6 |
| 20260831235433 | 88 | 202 | 0.0 | 1.0 | 0.00 | 0.11 | 0.11 | 67 | 1014.5 |
| 20260831234531 | 88 | 202 | 0.0 | 1.0 | 0.00 | 0.11 | 0.11 | 66 | 1014.3 |
| 20260831233531 | 88 | 202 | 0.0 | 0.0 | 0.00 | 0.11 | 0.11 | 66 | 1014.6 |
| 20260831231431 | 89 | 225 | 0.0 | 0.0 | 0.00 | 0.11 | 0.11 | 68 | 1014.6 |
| 20260831230434 | 89 | 270 | 0.0 | 0.0 | 0.00 | 0.11 | 0.11 | 69 | 1014.7 |
| 20260831225433 | 89 | 182 | 0.0 | 1.0 | 0.00 | 0.11 | 0.11 | 69 | 1014.6 |
| 20260831224433 | 88 | 202 | 0.0 | 0.0 | 0.00 | 0.11 | 0.11 | 70 | 1014.8 |
| 20260831223432 | 87 | 202 | 0.0 | 0.0 | 0.00 | 0.11 | 0.11 | 74 | 1014.8 |
| 20260831222435 | 86 | 202 | 0.0 | 0.0 | 0.00 | 0.11 | 0.11 | 75 | 1014.8 |
| 20260831221432 | 85 | 202 | 0.0 | 0.0 | 0.00 | 0.11 | 0.11 | 78 | 1014.8 |
| 20260831220432 | 85 | 225 | 0.0 | 0.0 | 0.00 | 0.11 | 0.11 | 80 | 1015.0 |
| 20260831215435 | 84 | 225 | 0.0 | 2.0 | 0.00 | 0.11 | 0.11 | 81 | 1015.0 |
| 20260831214532 | 84 | 225 | 0.0 | 0.0 | 0.00 | 0.11 | 0.11 | 80 | 1015.1 |
| 20260831213534 | 83 | 225 | 0.0 | 1.0 | 0.00 | 0.11 | 0.11 | 79 | 1015.2 |
| 20260831212531 | 82 | 202 | 1.0 | 2.0 | 0.01 | 0.11 | 0.11 | 81 | 1015.4 |
| 20260831210534 | 81 | 202 | 0.0 | 1.0 | 0.02 | 0.11 | 0.11 | 84 | 1015.7 |
| 20260831205631 | 81 | 225 | 1.0 | 1.0 | 0.02 | 0.11 | 0.11 | 85 | 1015.7 |
| 20260831205531 | 81 | 225 | 1.0 | 2.0 | 0.02 | 0.11 | 0.11 | 85 | 1015.7 |
| 20260831204534 | 82 | 225 | 1.0 | 3.0 | 0.02 | 0.11 | 0.11 | 84 | 1015.9 |
| 20260831202531 | 87 | 225 | 2.0 | 3.0 | 0.01 | 0.10 | 0.10 | 73 | 1016.1 |
| 20260831200534 | 92 | 41 | 2.0 | 6.0 | 0.00 | 0.09 | 0.09 | 65 | 1016.0 |
| 20260831195631 | 93 | 64 | 0.0 | 3.0 | 0.00 | 0.09 | 0.09 | 63 | 1016.2 |
| 20260831194633 | 91 | 167 | 0.0 | 0.0 | 0.00 | 0.09 | 0.09 | 67 | 1016.3 |
| 20260831193731 | 90 | 117 | 0.0 | 0.0 | 0.00 | 0.09 | 0.09 | 70 | 1016.2 |
| 20260831192731 | 89 | 81 | 0.0 | 0.0 | 0.00 | 0.09 | 0.09 | 73 | 1016.4 |
| 20260831191735 | 87 | 180 | 0.0 | 0.0 | 0.00 | 0.09 | 0.09 | 74 | 1016.5 |
| 20260831190734 | 86 | 218 | 0.0 | 2.0 | 0.00 | 0.09 | 0.09 | 75 | 1016.7 |
| 20260831185732 | 87 | 220 | 0.0 | 0.0 | 0.00 | 0.09 | 0.09 | 75 | 1016.9 |
| 20260831184733 | 88 | 202 | 0.0 | 0.0 | 0.00 | 0.09 | 0.09 | 73 | 1016.9 |
| 20260831183732 | 89 | 261 | 0.0 | 0.0 | 0.00 | 0.09 | 0.09 | 75 | 1016.9 |
| 20260831181732 | 88 | 225 | 0.0 | 0.0 | 0.00 | 0.09 | 0.09 | 78 | 1016.9 |
| 20260831180831 | 87 | 225 | 0.0 | 0.0 | 0.07 | 0.09 | 0.09 | 80 | 1017.2 |
| 20260831175832 | 87 | 225 | 0.0 | 0.0 | 0.09 | 0.09 | 0.09 | 82 | 1017.4 |
| 20260831174832 | 84 | 225 | 0.0 | 0.0 | 0.09 | 0.09 | 0.09 | 87 | 1017.4 |
| 20260831173834 | 82 | 202 | 0.0 | 0.0 | 0.09 | 0.09 | 0.09 | 91 | 1017.3 |
| 20260831172931 | 81 | 202 | 0.0 | 0.0 | 0.09 | 0.09 | 0.09 | 87 | 1017.4 |
| 20260831171930 | 84 | 202 | 0.0 | 1.0 | 0.09 | 0.09 | 0.09 | 81 | 1017.6 |
| 20260831170931 | 88 | 207 | 0.0 | 2.0 | 0.03 | 0.03 | 0.02 | 73 | 1017.6 |
| 20260831165935 | 88 | 274 | 0.0 | 0.0 | 0.00 | 0.00 | 0.00 | 72 | 1017.5 |
| 20260831164933 | 88 | 202 | 0.0 | 1.0 | 0.00 | 0.00 | 0.00 | 71 | 1017.5 |
| 20260831163930 | 88 | 45 | 0.0 | 0.0 | 0.00 | 0.00 | 0.00 | 71 | 1017.8 |
| 20260831162931 | 88 | 225 | 0.0 | 0.0 | 0.00 | 0.00 | 0.00 | 72 | 1017.5 |
| 20260831162832 | 88 | 225 | 0.0 | 0.0 | 0.00 | 0.00 | 0.00 | 71 | 1017.8 |
| 20260831161831 | 88 | 45 | 0.0 | 0.0 | 0.00 | 0.00 | 0.00 | 70 | 1017.8 |
| 20260831160832 | 89 | 53 | 0.0 | 1.0 | 0.00 | 0.00 | 0.00 | 71 | 1017.8 |
| 20260831155930 | 89 | 45 | 0.0 | 1.0 | 0.00 | 0.00 | 0.00 | 73 | 1017.7 |
| 20260831154933 | 88 | 230 | 0.0 | 0.0 | 0.00 | 0.00 | 0.00 | 73 | 1017.6 |
| 20260831152932 | 88 | 247 | 0.0 | 0.0 | 0.00 | 0.00 | 0.00 | 75 | 1017.5 |
| 20260831152030 | 88 | 296 | 0.0 | 1.0 | 0.00 | 0.00 | 0.00 | 76 | 1017.7 |
| 20260831151034 | 86 | 80 | 0.0 | 0.0 | 0.00 | 0.00 | 0.00 | 79 | 1017.6 |
| 20260831150131 | 84 | 157 | 0.0 | 0.0 | 0.00 | 0.00 | 0.00 | 81 | 1017.7 |
| 20260831145131 | 83 | 152 | 0.0 | 0.0 | 0.00 | 0.00 | 0.00 | 83 | 1017.6 |
| 20260831142133 | 81 | 202 | 0.0 | 0.0 | 0.00 | 0.00 | 0.00 | 89 | 1017.4 |
| 20260831141133 | 80 | 202 | 0.0 | 0.0 | 0.00 | 0.00 | 0.00 | 92 | 1017.4 |
| 20260831140230 | 79 | 202 | 0.0 | 0.0 | 0.00 | 0.00 | 0.00 | 92 | 1017.4 |
| 20260831135232 | 79 | 202 | 0.0 | 0.0 | 0.00 | 0.00 | 0.00 | 93 | 1017.4 |
| 20260831134231 | 79 | 202 | 0.0 | 0.0 | 0.00 | 0.00 | 0.00 | 95 | 1017.3 |
| 20260831133232 | 78 | 202 | 0.0 | 0.0 | 0.00 | 0.00 | 0.00 | 95 | 1017.1 |
| 20260831131230 | 77 | 202 | 0.0 | 0.0 | 0.00 | 0.00 | 0.00 | 95 | 1016.8 |
| 20260831131132 | 77 | 202 | 0.0 | 0.0 | 0.00 | 0.00 | 0.00 | 95 | 1016.9 |
| 20260831130131 | 77 | 202 | 0.0 | 0.0 | 0.00 | 0.00 | 0.00 | 95 | 1016.8 |
| 20260831125133 | 77 | 202 | 0.0 | 0.0 | 0.00 | 0.00 | 0.00 | 94 | 1016.6 |
| 20260831124131 | 77 | 202 | 0.0 | 0.0 | 0.00 | 0.00 | 0.00 | 94 | 1016.5 |
| 20260831123230 | 77 | 202 | 0.0 | 0.0 | 0.00 | 0.00 | 0.00 | 95 | 1016.4 |
| 20260831122234 | 77 | 202 | 0.0 | 0.0 | 0.00 | 0.00 | 0.00 | 95 | 1016.2 |
| 20260831121231 | 77 | 202 | 0.0 | 0.0 | 0.00 | 0.00 | 0.00 | 95 | 1016.1 |
| 20260831121132 | 77 | 202 | 0.0 | 0.0 | 0.00 | 0.00 | 0.00 | 94 | 1016.2 |
| 20260831120230 | 77 | 202 | 0.0 | 0.0 | 0.00 | 0.00 | 0.00 | 94 | 1016.1 |
| 20260831115231 | 77 | 202 | 0.0 | 0.0 | 0.00 | 0.00 | 0.00 | 94 | 1016.1 |
| 20260831114233 | 77 | 202 | 0.0 | 0.0 | 0.00 | 0.00 | 0.00 | 94 | 1016.0 |
| 20260831113330 | 77 | 202 | 0.0 | 0.0 | 0.00 | 0.00 | 0.00 | 94 | 1015.8 |
| 20260831111334 | 77 | 202 | 0.0 | 0.0 | 0.00 | 0.00 | 0.00 | 94 | 1015.7 |
| 20260831110432 | 77 | 202 | 0.0 | 0.0 | 0.00 | 0.00 | 0.00 | 94 | 1015.8 |
| 20260831105432 | 77 | 202 | 0.0 | 0.0 | 0.00 | 0.00 | 0.00 | 94 | 1015.7 |
| 20260831104433 | 77 | 202 | 0.0 | 0.0 | 0.00 | 0.00 | 0.00 | 93 | 1015.7 |
| 20260831103434 | 77 | 202 | 0.0 | 0.0 | 0.00 | 0.00 | 0.00 | 93 | 1016.0 |
| 20260831102431 | 77 | 202 | 0.0 | 0.0 | 0.00 | 0.00 | 0.00 | 92 | 1015.8 |
| 20260831101432 | 77 | 202 | 0.0 | 0.0 | 0.00 | 0.00 | 0.00 | 93 | 1015.9 |
| 20260831100530 | 78 | 202 | 0.0 | 0.0 | 0.00 | 0.00 | 0.00 | 92 | 1015.9 |
| 20260831095532 | 78 | 202 | 0.0 | 0.0 | 0.00 | 0.00 | 0.00 | 92 | 1015.9 |
| 20260831094533 | 78 | 202 | 0.0 | 0.0 | 0.00 | 0.00 | 0.00 | 92 | 1016.0 |
| 20260831093630 | 78 | 202 | 0.0 | 0.0 | 0.00 | 0.00 | 0.00 | 90 | 1015.8 |
| 20260831092632 | 78 | 202 | 0.0 | 0.0 | 0.00 | 0.00 | 0.00 | 91 | 1015.6 |
| 20260831091632 | 78 | 202 | 0.0 | 0.0 | 0.00 | 0.00 | 0.00 | 90 | 1015.7 |
| 20260831090632 | 78 | 202 | 0.0 | 0.0 | 0.00 | 0.00 | 0.00 | 90 | 1015.7 |
| 20260831085730 | 78 | 202 | 0.0 | 0.0 | 0.00 | 0.00 | 0.00 | 90 | 1015.5 |
| 20260831084734 | 79 | 202 | 0.0 | 0.0 | 0.00 | 0.00 | 0.00 | 90 | 1015.7 |
| 20260831082831 | 79 | 202 | 0.0 | 0.0 | 0.00 | 0.00 | 0.00 | 89 | 1015.8 |
| 20260831081930 | 79 | 202 | 0.0 | 0.0 | 0.00 | 0.00 | 0.00 | 89 | 1015.9 |